createdAt,value
2015-11-05T00:00:24.376Z,6.5
2015-11-05T00:01:26.647Z,6.5
2015-11-05T00:02:22.882Z,6.5
2015-11-05T00:03:24.619Z,6.5
2015-11-05T00:04:23.855Z,6.5
2015-11-05T00:05:23.093Z,6.5
2015-11-05T00:06:25.345Z,6.6
2015-11-05T00:07:21.551Z,6.5
2015-11-05T00:08:20.788Z,6.5
2015-11-05T00:10:22.262Z,6.6
2015-11-05T00:11:18.468Z,6.6
2015-11-05T00:12:17.752Z,6.6
2015-11-05T00:13:19.490Z,6.6
2015-11-05T00:14:18.726Z,6.6
2015-11-05T00:15:20.995Z,6.5
2015-11-05T00:19:14.881Z,6.6
2015-11-05T00:20:14.102Z,6.6
2015-11-05T00:21:13.341Z,6.6
2015-11-05T00:22:12.625Z,6.6
2015-11-05T00:30:08.968Z,6.6
2015-11-05T00:31:08.456Z,6.6
2015-11-05T00:32:08.006Z,6.6
2015-11-05T00:33:09.743Z,6.6
2015-11-05T00:34:08.965Z,6.6
2015-11-05T00:35:08.467Z,6.6
2015-11-05T00:36:07.687Z,6.6
2015-11-05T00:38:06.379Z,6.6
2015-11-05T00:39:05.853Z,6.6
2015-11-05T00:40:05.326Z,6.6
2015-11-05T00:41:04.801Z,6.6
2015-11-05T00:42:04.354Z,6.6
2015-11-05T00:43:06.071Z,6.6
2015-11-05T00:44:05.553Z,6.6
2015-11-05T00:46:07.549Z,6.6
2015-11-05T00:47:04.002Z,6.6
2015-11-05T00:48:03.487Z,6.6
2015-11-05T00:49:02.972Z,6.6
2015-11-05T00:50:05.490Z,6.6
2015-11-05T00:52:01.476Z,6.6
2015-11-05T00:53:03.213Z,6.6
2015-11-05T00:54:02.699Z,6.6
2015-11-05T00:55:05.217Z,6.6
2015-11-05T00:56:01.687Z,6.6
2015-11-05T00:57:01.158Z,6.6
2015-11-05T00:58:00.661Z,6.6
2015-11-05T00:59:00.133Z,6.6
2015-11-05T01:01:02.154Z,6.6
2015-11-05T01:01:58.656Z,6.6
2015-11-05T01:03:00.394Z,6.6
2015-11-05T01:03:59.881Z,6.6
2015-11-05T01:04:59.368Z,6.6
2015-11-05T01:05:58.854Z,6.6
2015-11-05T01:06:58.342Z,6.6
2015-11-05T01:07:57.830Z,6.6
2015-11-05T01:08:57.300Z,6.6
2015-11-05T01:09:56.818Z,6.6
2015-11-05T01:10:56.275Z,6.6
2015-11-05T01:11:55.825Z,6.6
2015-11-05T01:12:57.561Z,6.6
2015-11-05T01:13:57.080Z,6.6
2015-11-05T01:14:56.536Z,6.6
2015-11-05T01:15:56.007Z,6.6
2015-11-05T01:17:54.982Z,6.6
2015-11-05T01:18:54.468Z,6.6
2015-11-05T01:19:56.988Z,6.6
2015-11-05T01:20:53.443Z,6.6
2015-11-05T01:21:52.993Z,6.6
2015-11-05T01:22:54.730Z,6.6
2015-11-05T01:23:54.464Z,6.6
2015-11-05T01:24:54.201Z,6.6
2015-11-05T01:25:55.363Z,6.7
2015-11-05T01:27:52.913Z,6.7
2015-11-05T01:30:51.374Z,6.7
2015-11-05T01:31:50.907Z,6.7
2015-11-05T01:32:52.660Z,6.6
2015-11-05T01:33:52.148Z,6.6
2015-11-05T01:34:54.651Z,6.6
2015-11-05T01:35:54.154Z,6.7
2015-11-05T01:36:50.593Z,6.7
2015-11-05T01:37:50.081Z,6.7
2015-11-05T01:38:49.584Z,6.7
2015-11-05T01:39:49.055Z,6.6
2015-11-05T01:40:48.526Z,6.7
2015-11-05T01:41:48.092Z,6.6
2015-11-05T01:42:49.813Z,6.6
2015-11-05T01:43:49.300Z,6.6
2015-11-05T01:44:48.803Z,6.6
2015-11-05T01:45:48.009Z,6.6
2015-11-05T01:46:47.511Z,6.6
2015-11-05T01:47:46.858Z,6.6
2015-11-05T01:48:46.220Z,6.6
2015-11-05T01:49:45.706Z,6.6
2015-11-05T01:50:44.944Z,6.6
2015-11-05T01:51:44.244Z,6.6
2015-11-05T01:52:46.075Z,6.6
2015-11-05T01:53:45.577Z,6.6
2015-11-05T01:54:44.924Z,6.6
2015-11-05T01:55:43.895Z,6.6
2015-11-05T01:56:43.508Z,6.6
2015-11-05T01:57:42.620Z,6.6
2015-11-05T01:58:41.856Z,6.6
2015-11-05T01:59:41.203Z,6.6
2015-11-05T02:00:40.565Z,6.6
2015-11-05T02:03:40.558Z,6.6
2015-11-05T02:05:39.014Z,6.6
2015-11-05T02:07:40.503Z,6.6
2015-11-05T02:09:36.166Z,6.6
2015-11-05T02:11:34.671Z,6.6
2015-11-05T02:13:35.630Z,6.6
2015-11-05T02:15:34.603Z,6.6
2015-11-05T02:17:33.578Z,6.6
2015-11-05T02:18:32.815Z,6.6
2015-11-05T02:19:32.302Z,6.6
2015-11-05T02:20:31.758Z,6.6
2015-11-05T02:23:32.141Z,6.6
2015-11-05T02:24:31.503Z,6.6
2015-11-05T02:26:30.338Z,6.6
2015-11-05T02:31:27.038Z,6.6
2015-11-05T02:35:26.346Z,6.6
2015-11-05T02:51:16.715Z,6.7
2015-11-05T05:10:04.496Z,6.9
2015-11-05T05:11:06.108Z,6.9
2015-11-05T05:15:03.026Z,6.9
2015-11-05T05:16:02.356Z,0
2015-11-05T05:19:59.318Z,7.9
2015-11-05T05:22:00.151Z,0
2015-11-05T05:39:47.216Z,7
2015-11-05T05:40:48.953Z,7
2015-11-05T05:42:46.896Z,7
2015-11-05T05:51:40.577Z,7
2015-11-05T05:52:39.548Z,7
2015-11-05T05:53:38.645Z,7
2015-11-05T05:54:37.754Z,7
2015-11-05T06:13:27.948Z,7
2015-11-05T06:17:24.724Z,7
2015-11-05T06:18:23.961Z,7
2015-11-05T06:19:23.479Z,7
2015-11-05T06:36:15.164Z,7.1
2015-11-05T06:37:14.511Z,7.1
2015-11-05T06:38:13.747Z,7.1
2015-11-05T06:39:12.906Z,7.1
2015-11-05T06:43:12.433Z,7.1
2015-11-05T07:00:06.854Z,7.2
2015-11-05T07:02:05.922Z,7.3
2015-11-05T07:03:05.300Z,7.2
2015-11-05T07:13:02.684Z,7.4
2015-11-05T07:15:01.783Z,7.4
2015-11-05T07:18:00.104Z,7.5
2015-11-05T07:21:00.987Z,7.6
2015-11-05T07:22:00.099Z,7.6
2015-11-05T07:24:57.904Z,7.6
2015-11-05T07:26:56.347Z,7.7
2015-11-05T07:29:56.469Z,7.7
2015-11-05T07:32:54.259Z,7.7
2015-11-05T07:33:53.497Z,7.8
2015-11-05T07:34:52.593Z,7.8
2015-11-05T07:35:51.940Z,7.8
2015-11-05T07:36:51.051Z,7.8
2015-11-05T07:37:50.397Z,7.8
2015-11-05T07:38:49.666Z,7.9
2015-11-05T07:39:51.403Z,7.9
2015-11-05T07:40:50.625Z,7.9
2015-11-05T07:41:52.768Z,7.9
2015-11-05T08:08:24.199Z,9.8
2015-11-05T08:16:38.190Z,8.7
2015-11-05T08:17:40.490Z,8.7
2015-11-05T08:18:42.835Z,8.7
2015-11-05T08:19:44.573Z,8.8
2015-11-05T08:20:46.873Z,8.8
2015-11-05T08:21:49.172Z,8.9
2015-11-05T08:22:51.581Z,8.9
2015-11-05T08:23:53.756Z,8.9
2015-11-05T08:24:56.055Z,8.9
2015-11-05T08:25:58.480Z,9
2015-11-05T08:28:02.438Z,9.1
2015-11-05T08:29:04.535Z,9.1
2015-11-05T08:30:06.273Z,9.1
2015-11-05T08:31:08.306Z,9.2
2015-11-05T08:32:10.090Z,9.2
2015-11-05T08:33:11.999Z,9.3
2015-11-05T08:34:13.659Z,9.3
2015-11-05T08:35:15.442Z,9.3
2015-11-05T08:37:19.026Z,9.4
2015-11-05T08:38:20.794Z,9.5
2015-11-05T08:39:22.500Z,9.5
2015-11-05T08:40:24.096Z,9.5
2015-11-05T08:41:25.365Z,9.6
2015-11-05T08:42:26.633Z,9.7
2015-11-05T08:43:27.901Z,9.7
2015-11-05T08:44:29.170Z,9.7
2015-11-05T08:45:30.189Z,9.7
2015-11-05T08:46:31.191Z,9.7
2015-11-05T08:47:32.209Z,9.7
2015-11-05T08:48:33.243Z,9.8
2015-11-05T08:49:34.075Z,9.8
2015-11-05T08:50:35.796Z,9.8
2015-11-05T08:51:36.548Z,9.9
2015-11-05T08:52:37.301Z,9.9
2015-11-05T08:53:38.054Z,9.9
2015-11-05T08:54:38.557Z,9.9
2015-11-05T08:55:39.059Z,10
2015-11-05T08:57:39.800Z,10
2015-11-05T08:58:40.036Z,10.1
2015-11-05T08:59:40.337Z,10.1
2015-11-05T09:00:42.059Z,10.1
2015-11-05T09:04:42.381Z,10.1
2015-11-05T09:07:42.452Z,10.1
2015-11-05T09:08:42.423Z,10.1
2015-11-05T09:09:42.348Z,10.1
2015-11-05T09:10:43.945Z,10.1
2015-11-05T09:11:44.057Z,10.1
2015-11-05T09:12:45.076Z,10.1
2015-11-05T09:13:43.391Z,10.1
2015-11-05T09:14:43.111Z,10.1
2015-11-05T09:15:42.834Z,10.2
2015-11-05T09:16:42.678Z,10.1
2015-11-05T09:17:42.539Z,10.2
2015-11-05T09:18:42.011Z,10.2
2015-11-05T09:19:41.919Z,10.2
2015-11-05T09:20:43.533Z,10.2
2015-11-05T09:21:43.378Z,10.2
2015-11-05T09:22:42.975Z,10.2
2015-11-05T09:23:42.712Z,10.2
2015-11-05T09:24:42.449Z,10.3
2015-11-05T09:25:42.295Z,10.3
2015-11-05T09:26:41.892Z,10.3
2015-11-05T09:27:41.613Z,10.3
2015-11-05T09:28:42.741Z,10.3
2015-11-05T09:29:40.869Z,10.3
2015-11-05T09:30:42.590Z,10.3
2015-11-05T09:31:42.313Z,10.4
2015-11-05T09:32:42.033Z,10.4
2015-11-05T09:33:43.177Z,10.4
2015-11-05T09:34:42.914Z,10.4
2015-11-05T09:35:41.213Z,10.4
2015-11-05T09:36:40.935Z,10.4
2015-11-05T09:38:40.128Z,10.5
2015-11-05T09:39:39.647Z,10.5
2015-11-05T09:40:41.368Z,10.5
2015-11-05T09:42:41.857Z,10.5
2015-11-05T09:43:39.764Z,10.6
2015-11-05T09:44:39.218Z,10.6
2015-11-05T09:46:40.894Z,10.6
2015-11-05T09:47:37.068Z,10.6
2015-11-05T09:48:36.534Z,10.7
2015-11-05T09:49:35.780Z,10.7
2015-11-05T09:50:37.496Z,10.7
2015-11-05T09:51:36.700Z,10.7
2015-11-05T09:52:38.979Z,10.8
2015-11-05T09:53:35.136Z,10.8
2015-11-05T09:55:33.559Z,10.9
2015-11-05T09:56:32.761Z,10.9
2015-11-05T09:57:31.982Z,10.9
2015-11-05T09:58:31.185Z,10.9
2015-11-05T09:59:30.453Z,10.9
2015-11-05T10:00:32.157Z,10.9
2015-11-05T10:01:31.128Z,10.9
2015-11-05T10:02:33.099Z,11
2015-11-05T10:03:29.023Z,11
2015-11-05T10:04:27.730Z,11
2015-11-05T10:05:26.420Z,11.1
2015-11-05T10:06:25.125Z,11.1
2015-11-05T10:07:23.816Z,11.1
2015-11-05T10:08:22.505Z,11.2
2015-11-05T10:09:21.259Z,11.2
2015-11-05T10:10:22.964Z,11.3
2015-11-05T10:11:21.670Z,11.3
2015-11-05T10:12:20.360Z,11.3
2015-11-05T10:13:19.066Z,11.3
2015-11-05T10:14:17.757Z,11.3
2015-11-05T10:15:16.463Z,11.4
2015-11-05T10:16:14.891Z,11.3
2015-11-05T10:17:13.332Z,11.4
2015-11-05T10:18:11.787Z,11.4
2015-11-05T10:19:14.118Z,11.5
2015-11-05T10:20:15.840Z,11.5
2015-11-05T10:21:18.124Z,11.5
2015-11-05T10:22:20.407Z,11.5
2015-11-05T10:23:22.692Z,11.6
2015-11-05T10:24:24.976Z,11.6
2015-11-05T10:25:27.259Z,11.6
2015-11-05T10:26:29.544Z,11.7
2015-11-05T10:27:31.828Z,11.8
2015-11-05T10:28:34.095Z,11.7
2015-11-05T10:29:36.193Z,11.8
2015-11-05T10:30:37.887Z,11.8
2015-11-05T10:31:39.922Z,11.8
2015-11-05T10:32:41.941Z,11.9
2015-11-05T10:33:43.959Z,11.9
2015-11-05T10:34:45.728Z,11.9
2015-11-05T10:35:47.512Z,12
2015-11-05T10:36:49.280Z,12
2015-11-05T10:37:51.298Z,12
2015-11-05T10:38:53.114Z,12.1
2015-11-05T10:39:54.882Z,12.1
2015-11-05T10:40:56.604Z,12.1
2015-11-05T10:41:58.372Z,12.1
2015-11-05T10:43:00.140Z,12.1
2015-11-05T10:44:01.895Z,12.1
2015-11-05T10:45:03.664Z,12.2
2015-11-05T10:46:05.431Z,12.2
2015-11-05T10:47:06.951Z,12.2
2015-11-05T10:48:08.453Z,12.3
2015-11-05T10:49:09.957Z,12.3
2015-11-05T10:50:11.523Z,12.3
2015-11-05T10:51:13.244Z,12.4
2015-11-05T10:52:14.746Z,12.4
2015-11-05T10:53:15.999Z,12.4
2015-11-05T10:54:17.251Z,12.4
2015-11-05T10:55:18.505Z,12.4
2015-11-05T10:56:19.757Z,12.5
2015-11-05T10:57:21.009Z,12.5
2015-11-05T10:58:22.278Z,12.5
2015-11-05T10:59:23.531Z,12.5
2015-11-05T11:00:24.830Z,12.6
2015-11-05T11:01:26.537Z,12.5
2015-11-05T11:02:27.790Z,12.6
2015-11-05T11:03:29.042Z,12.6
2015-11-05T11:04:30.295Z,12.6
2015-11-05T11:05:31.548Z,12.7
2015-11-05T11:06:32.800Z,12.7
2015-11-05T11:07:33.787Z,12.7
2015-11-05T11:08:34.790Z,12.7
2015-11-05T11:09:35.542Z,12.8
2015-11-05T11:10:36.577Z,12.8
2015-11-05T11:11:38.283Z,12.7
2015-11-05T11:12:39.020Z,12.8
2015-11-05T11:13:39.756Z,12.8
2015-11-05T11:14:40.494Z,12.8
2015-11-05T11:15:41.247Z,12.8
2015-11-05T11:16:41.983Z,12.9
2015-11-05T11:17:42.705Z,12.9
2015-11-05T11:18:43.458Z,12.9
2015-11-05T11:19:43.930Z,13
2015-11-05T11:20:44.463Z,12.9
2015-11-05T11:21:46.169Z,12.9
2015-11-05T11:22:46.656Z,13
2015-11-05T11:23:46.878Z,13
2015-11-05T11:24:47.100Z,13
2015-11-05T11:25:47.321Z,13.1
2015-11-05T11:26:47.542Z,13.1
2015-11-05T11:27:47.779Z,13.1
2015-11-05T11:28:48.001Z,13.2
2015-11-05T11:29:48.222Z,13.1
2015-11-05T11:30:48.507Z,13.2
2015-11-05T11:31:50.213Z,13.2
2015-11-05T11:32:50.433Z,13.2
2015-11-05T11:33:50.655Z,13.2
2015-11-05T11:34:50.876Z,13.3
2015-11-05T11:35:51.098Z,13.3
2015-11-05T11:36:51.319Z,13.3
2015-11-05T11:37:51.291Z,13.4
2015-11-05T11:38:51.278Z,13.4
2015-11-05T11:39:51.234Z,13.4
2015-11-05T11:40:51.001Z,13.5
2015-11-05T11:41:52.707Z,13.5
2015-11-05T11:42:52.414Z,13.5
2015-11-05T11:43:52.120Z,13.5
2015-11-05T11:44:51.825Z,13.5
2015-11-05T11:45:51.531Z,13.6
2015-11-05T11:46:51.237Z,13.6
2015-11-05T11:47:50.958Z,13.6
2015-11-05T11:48:50.681Z,13.6
2015-11-05T11:49:50.120Z,13.6
2015-11-05T11:50:49.620Z,13.7
2015-11-05T11:51:51.328Z,13.6
2015-11-05T11:52:50.535Z,13.7
2015-11-05T11:53:49.973Z,13.7
2015-11-05T11:54:49.178Z,13.7
2015-11-05T11:55:48.368Z,13.7
2015-11-05T11:56:47.558Z,13.7
2015-11-05T11:57:46.764Z,13.8
2015-11-05T11:58:45.955Z,13.7
2015-11-05T11:59:45.160Z,13.8
2015-11-05T12:00:44.413Z,13.8
2015-11-05T12:01:46.103Z,13.8
2015-11-05T12:02:45.309Z,13.9
2015-11-05T12:03:44.500Z,13.9
2015-11-05T12:04:43.705Z,13.9
2015-11-05T12:05:42.895Z,13.9
2015-11-05T12:06:41.835Z,13.9
2015-11-05T12:07:40.775Z,13.9
2015-11-05T12:08:39.732Z,14
2015-11-05T12:09:38.672Z,14
2015-11-05T12:10:37.658Z,14
2015-11-05T12:12:38.305Z,14
2015-11-05T12:13:37.245Z,14.1
2015-11-05T12:14:35.935Z,14
2015-11-05T12:15:34.611Z,14.1
2015-11-05T12:16:33.300Z,14.1
2015-11-05T12:17:31.975Z,14.1
2015-11-05T12:18:30.665Z,14.1
2015-11-05T12:19:29.340Z,14.1
2015-11-05T12:20:28.093Z,14.1
2015-11-05T12:21:29.783Z,14.1
2015-11-05T12:22:28.474Z,14.1
2015-11-05T12:23:26.898Z,14.1
2015-11-05T12:24:25.321Z,14.1
2015-11-05T12:25:23.747Z,14.1
2015-11-05T12:26:22.171Z,14.1
2015-11-05T12:27:24.455Z,14.1
2015-11-05T12:29:28.993Z,14.1
2015-11-05T12:30:27.479Z,14.1
2015-11-05T12:31:29.185Z,14.1
2015-11-05T12:32:27.609Z,14.1
2015-11-05T12:33:26.034Z,14.1
2015-11-05T12:34:24.471Z,14.1
2015-11-05T12:35:22.896Z,14.1
2015-11-05T12:36:21.337Z,14.1
2015-11-05T12:37:19.745Z,14.1
2015-11-05T12:38:18.170Z,14.2
2015-11-05T12:39:16.610Z,14.2
2015-11-05T12:40:15.082Z,14.2
2015-11-05T12:41:16.787Z,14.2
2015-11-05T12:42:15.212Z,14.2
2015-11-05T12:44:12.077Z,14.2
2015-11-05T12:45:10.501Z,14.3
2015-11-05T12:46:08.926Z,14.3
2015-11-05T12:47:07.350Z,14.3
2015-11-05T12:48:05.775Z,14.3
2015-11-05T12:49:08.059Z,14.3
2015-11-05T12:50:10.375Z,14.3
2015-11-05T12:51:12.081Z,14.3
2015-11-05T12:52:14.364Z,14.3
2015-11-05T12:53:16.633Z,14.3
2015-11-05T12:54:18.901Z,14.4
2015-11-05T12:55:21.169Z,14.4
2015-11-05T12:56:23.438Z,14.5
2015-11-05T12:57:25.456Z,14.4
2015-11-05T12:58:27.475Z,14.4
2015-11-05T12:59:29.493Z,14.4
2015-11-05T13:00:31.558Z,14.5
2015-11-05T13:01:33.249Z,14.5
2015-11-05T13:02:35.016Z,14.5
2015-11-05T13:03:36.769Z,14.5
2015-11-05T13:04:38.522Z,14.5
2015-11-05T13:05:40.290Z,14.5
2015-11-05T13:06:42.043Z,14.5
2015-11-05T13:07:43.796Z,14.5
2015-11-05T13:08:45.564Z,14.5
2015-11-05T13:09:47.316Z,14.5
2015-11-05T13:10:49.132Z,14.6
2015-11-05T13:11:50.838Z,14.6
2015-11-05T13:12:52.591Z,14.6
2015-11-05T13:13:54.344Z,14.7
2015-11-05T13:14:56.099Z,14.7
2015-11-05T13:15:57.868Z,14.7
2015-11-05T13:16:59.621Z,14.7
2015-11-05T13:18:01.123Z,14.7
2015-11-05T13:19:02.876Z,14.7
2015-11-05T13:20:04.378Z,14.8
2015-11-05T13:21:05.943Z,14.8
2015-11-05T13:22:07.634Z,14.7
2015-11-05T13:23:09.137Z,14.8
2015-11-05T13:25:12.392Z,14.8
2015-11-05T13:26:14.160Z,14.8
2015-11-05T13:27:15.913Z,14.8
2015-11-05T13:28:17.666Z,14.8
2015-11-05T13:29:19.418Z,14.8
2015-11-05T13:30:21.187Z,14.8
2015-11-05T13:31:23.001Z,14.8
2015-11-05T13:32:24.692Z,14.8
2015-11-05T13:33:26.445Z,14.8
2015-11-05T13:34:28.214Z,14.8
2015-11-05T13:35:29.967Z,14.9
2015-11-05T13:36:31.719Z,14.9
2015-11-05T13:37:33.472Z,14.8
2015-11-05T13:38:35.225Z,14.8
2015-11-05T13:39:36.992Z,14.8
2015-11-05T13:40:38.745Z,14.8
2015-11-05T13:41:40.561Z,14.8
2015-11-05T13:42:42.267Z,14.8
2015-11-05T13:43:44.020Z,14.8
2015-11-05T13:44:45.772Z,14.9
2015-11-05T13:45:47.540Z,14.9
2015-11-05T13:46:49.293Z,14.8
2015-11-05T13:47:51.045Z,14.8
2015-11-05T13:48:52.548Z,14.8
2015-11-05T13:49:54.036Z,14.8
2015-11-05T13:50:55.538Z,14.8
2015-11-05T13:51:57.103Z,14.8
2015-11-05T13:52:58.809Z,14.8
2015-11-05T13:54:00.046Z,14.8
2015-11-05T13:55:01.549Z,14.8
2015-11-05T13:56:02.802Z,14.8
2015-11-05T13:57:04.039Z,14.8
2015-11-05T13:58:05.276Z,14.8
2015-11-05T13:59:06.529Z,14.9
2015-11-05T14:00:07.749Z,14.8
2015-11-05T14:01:09.269Z,14.9
2015-11-05T14:02:10.552Z,14.9
2015-11-05T14:03:12.258Z,14.9
2015-11-05T14:04:13.746Z,14.9
2015-11-05T14:05:15.263Z,14.8
2015-11-05T14:06:16.751Z,14.9
2015-11-05T14:07:18.254Z,14.8
2015-11-05T14:08:19.756Z,14.8
2015-11-05T14:09:21.260Z,14.9
2015-11-05T14:10:22.746Z,14.8
2015-11-05T14:11:24.265Z,14.8
2015-11-05T14:12:25.814Z,14.8
2015-11-05T14:13:27.520Z,14.9
2015-11-05T14:14:28.756Z,14.8
2015-11-05T14:15:30.010Z,14.8
2015-11-05T14:16:31.246Z,14.8
2015-11-05T14:17:32.499Z,14.8
2015-11-05T14:18:33.751Z,14.8
2015-11-05T14:19:34.974Z,14.8
2015-11-05T14:20:36.476Z,14.7
2015-11-05T14:21:37.729Z,14.7
2015-11-05T14:22:39.012Z,14.7
2015-11-05T14:23:40.719Z,14.7
2015-11-05T14:24:41.972Z,14.7
2015-11-05T14:25:43.209Z,14.7
2015-11-05T14:26:44.451Z,14.6
2015-11-05T14:27:45.688Z,14.6
2015-11-05T14:28:47.191Z,14.6
2015-11-05T14:29:48.694Z,14.6
2015-11-05T14:30:50.196Z,14.6
2015-11-05T14:31:51.699Z,14.6
2015-11-05T14:32:53.248Z,14.5
2015-11-05T14:33:54.955Z,14.5
2015-11-05T14:34:56.457Z,14.5
2015-11-05T14:35:57.944Z,14.5
2015-11-05T14:36:59.447Z,14.5
2015-11-05T14:38:00.949Z,14.5
2015-11-05T14:39:02.452Z,14.5
2015-11-05T14:40:04.223Z,14.5
2015-11-05T14:41:05.976Z,14.4
2015-11-05T14:42:07.744Z,14.4
2015-11-05T14:43:09.560Z,14.4
2015-11-05T14:44:11.266Z,14.4
2015-11-05T14:45:13.018Z,14.4
2015-11-05T14:46:14.771Z,14.4
2015-11-05T14:47:16.523Z,14.3
2015-11-05T14:48:18.291Z,14.3
2015-11-05T14:49:20.044Z,14.3
2015-11-05T14:50:22.063Z,14.3
2015-11-05T14:51:24.081Z,14.3
2015-11-05T14:52:26.100Z,14.3
2015-11-05T14:53:28.165Z,14.3
2015-11-05T14:54:29.871Z,14.3
2015-11-05T14:55:31.904Z,14.2
2015-11-05T14:56:33.907Z,14.2
2015-11-05T14:57:36.176Z,14.2
2015-11-05T14:58:38.460Z,14.1
2015-11-05T14:59:40.729Z,14.1
2015-11-05T15:00:43.013Z,14.1
2015-11-05T15:01:45.281Z,14.1
2015-11-05T15:02:47.548Z,14.1
2015-11-05T15:03:49.879Z,14.1
2015-11-05T15:04:51.585Z,14.1
2015-11-05T15:05:53.854Z,14
2015-11-05T15:06:56.123Z,14
2015-11-05T15:07:54.562Z,14
2015-11-05T15:08:52.971Z,13.9
2015-11-05T15:09:51.427Z,14
2015-11-05T15:10:49.836Z,13.9
2015-11-05T15:11:48.276Z,13.9
2015-11-05T15:12:46.966Z,13.9
2015-11-05T15:13:45.704Z,13.9
2015-11-05T15:14:47.409Z,13.8
2015-11-05T15:15:46.084Z,13.8
2015-11-05T15:16:44.774Z,13.8
2015-11-05T15:17:43.464Z,13.8
2015-11-05T15:18:42.405Z,13.8
2015-11-05T15:19:41.344Z,13.7
2015-11-05T15:20:40.286Z,13.7
2015-11-05T15:21:39.226Z,13.7
2015-11-05T15:22:38.181Z,13.7
2015-11-05T15:23:37.184Z,13.6
2015-11-05T15:24:38.889Z,13.6
2015-11-05T15:25:38.081Z,13.6
2015-11-05T15:26:37.284Z,13.5
2015-11-05T15:27:36.473Z,13.5
2015-11-05T15:29:34.870Z,13.5
2015-11-05T15:30:34.075Z,13.5
2015-11-05T15:31:33.531Z,13.4
2015-11-05T15:32:32.988Z,13.3
2015-11-05T15:33:32.505Z,13.4
2015-11-05T15:34:34.618Z,13.3
2015-11-05T15:35:33.667Z,13.3
2015-11-05T15:36:33.373Z,13.3
2015-11-05T15:37:33.079Z,13.3
2015-11-05T15:38:32.800Z,13.3
2015-11-05T15:39:32.507Z,13.2
2015-11-05T15:40:32.212Z,13.2
2015-11-05T15:41:32.168Z,13.1
2015-11-05T15:42:32.140Z,13.1
2015-11-05T15:43:32.174Z,13.1
2015-11-05T15:44:33.880Z,13.1
2015-11-05T15:45:33.866Z,13
2015-11-05T15:46:34.088Z,13
2015-11-05T15:47:34.324Z,12.9
2015-11-05T15:48:34.562Z,12.9
2015-11-05T15:49:34.768Z,12.9
2015-11-05T15:50:35.004Z,12.9
2015-11-05T15:51:35.227Z,12.8
2015-11-05T15:52:35.713Z,12.8
2015-11-05T15:53:36.263Z,12.8
2015-11-05T15:54:37.969Z,12.7
2015-11-05T15:55:38.456Z,12.7
2015-11-05T15:56:39.193Z,12.7
2015-11-05T15:57:39.934Z,12.6
2015-11-05T15:58:40.680Z,12.6
2015-11-05T15:59:41.417Z,12.6
2015-11-05T16:00:42.169Z,12.5
2015-11-05T16:01:43.156Z,12.5
2015-11-05T16:02:44.159Z,12.5
2015-11-05T16:03:45.209Z,12.5
2015-11-05T16:04:46.914Z,12.4
2015-11-05T16:05:48.167Z,12.4
2015-11-05T16:06:49.436Z,12.4
2015-11-05T16:07:50.689Z,12.3
2015-11-05T16:08:51.925Z,12.3
2015-11-05T16:09:53.194Z,12.3
2015-11-05T16:10:54.713Z,12.2
2015-11-05T16:11:56.216Z,12.2
2015-11-05T16:12:57.734Z,12.2
2015-11-05T16:13:59.299Z,12.1
2015-11-05T16:15:01.020Z,12.1
2015-11-05T16:16:02.788Z,12.1
2015-11-05T16:17:04.557Z,12.1
2015-11-05T16:18:06.325Z,12.1
2015-11-05T16:19:08.093Z,12.1
2015-11-05T16:20:09.863Z,12
2015-11-05T16:21:11.630Z,12
2015-11-05T16:23:15.682Z,11.9
2015-11-05T16:24:17.763Z,11.9
2015-11-05T16:25:19.485Z,11.9
2015-11-05T16:26:21.754Z,11.9
2015-11-05T16:27:24.053Z,11.9
2015-11-05T16:28:26.340Z,11.8
2015-11-05T16:29:28.623Z,11.8
2015-11-05T16:30:30.907Z,11.8
2015-11-05T16:31:33.191Z,11.7
2015-11-05T16:32:35.460Z,11.7
2015-11-05T16:33:33.885Z,11.7
2015-11-05T16:34:32.387Z,11.7
2015-11-05T16:35:34.093Z,11.7
2015-11-05T16:36:32.534Z,11.7
2015-11-05T16:37:30.974Z,11.6
2015-11-05T16:38:29.412Z,11.6
2015-11-05T16:39:28.101Z,11.6
2015-11-05T16:40:26.542Z,11.5
2015-11-05T16:41:25.232Z,11.5
2015-11-05T16:42:23.922Z,11.5
2015-11-05T16:43:22.628Z,11.5
2015-11-05T16:44:21.381Z,11.4
2015-11-05T16:45:23.101Z,11.4
2015-11-05T16:46:22.058Z,11.4
2015-11-05T16:47:20.998Z,11.3
2015-11-05T16:48:20.204Z,11.3
2015-11-05T16:49:19.409Z,11.3
2015-11-05T16:50:18.631Z,11.3
2015-11-05T16:51:17.837Z,11.3
2015-11-05T16:52:17.042Z,11.3
2015-11-05T16:53:16.264Z,11.2
2015-11-05T16:54:15.533Z,11.2
2015-11-05T16:55:17.239Z,11.2
2015-11-05T16:56:16.444Z,11.2
2015-11-05T16:57:15.666Z,11.1
2015-11-05T16:58:15.137Z,11.1
2015-11-05T16:59:14.594Z,11.1
2015-11-05T17:00:14.064Z,11.1
2015-11-05T17:02:12.992Z,11
2015-11-05T17:03:12.714Z,11
2015-11-05T17:04:13.919Z,11
2015-11-05T17:05:14.219Z,10.9
2015-11-05T17:06:13.940Z,10.9
2015-11-05T17:07:13.661Z,10.9
2015-11-05T17:08:13.649Z,10.9
2015-11-05T17:09:13.621Z,10.9
2015-11-05T17:10:13.607Z,10.9
2015-11-05T17:11:13.579Z,10.9
2015-11-05T17:12:13.816Z,10.9
2015-11-05T17:13:14.053Z,10.9
2015-11-05T17:14:14.353Z,10.9
2015-11-05T17:15:16.058Z,10.8
2015-11-05T17:16:16.296Z,10.8
2015-11-05T17:17:16.532Z,10.8
2015-11-05T17:18:16.770Z,10.8
2015-11-05T17:19:16.991Z,10.7
2015-11-05T17:20:17.229Z,10.7
2015-11-05T17:21:17.465Z,10.7
2015-11-05T17:22:17.702Z,10.7
2015-11-05T17:23:17.940Z,10.7
2015-11-05T17:24:18.240Z,10.7
2015-11-05T17:25:19.961Z,10.6
2015-11-05T17:26:20.463Z,10.6
2015-11-05T17:27:20.951Z,10.6
2015-11-05T17:28:21.454Z,10.6
2015-11-05T17:29:21.940Z,10.6
2015-11-05T17:30:22.428Z,10.6
2015-11-05T17:31:23.181Z,10.6
2015-11-05T17:32:23.934Z,10.5
2015-11-05T17:33:24.686Z,10.5
2015-11-05T17:34:25.501Z,10.5
2015-11-05T17:35:27.207Z,10.5
2015-11-05T17:36:27.959Z,10.5
2015-11-05T17:37:28.712Z,10.5
2015-11-05T17:38:29.465Z,10.5
2015-11-05T17:39:30.217Z,10.4
2015-11-05T17:40:30.970Z,10.4
2015-11-05T17:41:31.723Z,10.4
2015-11-05T17:42:32.475Z,10.4
2015-11-05T17:43:33.213Z,10.3
2015-11-05T17:44:34.278Z,10.3
2015-11-05T17:45:35.984Z,10.3
2015-11-05T17:46:37.003Z,10.3
2015-11-05T17:48:39.023Z,10.2
2015-11-05T17:49:40.026Z,10.2
2015-11-05T17:50:41.294Z,10.2
2015-11-05T17:51:42.313Z,10.2
2015-11-05T17:52:43.566Z,10.1
2015-11-05T17:53:44.833Z,10.1
2015-11-05T17:54:46.149Z,10.1
2015-11-05T17:55:47.886Z,10.1
2015-11-05T17:56:49.139Z,10.1
2015-11-05T17:57:50.408Z,10.1
2015-11-05T17:58:51.925Z,10.1
2015-11-05T17:59:53.444Z,10.1
2015-11-05T18:00:54.963Z,10.1
2015-11-05T18:01:56.496Z,10.1
2015-11-05T18:02:58.280Z,10
2015-11-05T18:04:00.049Z,10
2015-11-05T18:05:01.896Z,10
2015-11-05T18:06:03.601Z,10
2015-11-05T18:07:05.385Z,10
2015-11-05T18:08:07.168Z,10
2015-11-05T18:09:08.938Z,9.9
2015-11-05T18:10:10.784Z,9.9
2015-11-05T18:11:12.490Z,9.9
2015-11-05T18:12:14.273Z,9.9
2015-11-05T18:13:16.057Z,9.9
2015-11-05T18:14:17.841Z,9.9
2015-11-05T18:15:19.673Z,9.9
2015-11-05T18:17:23.162Z,9.8
2015-11-05T18:18:24.946Z,9.8
2015-11-05T18:20:28.483Z,0
2015-11-05T18:21:30.282Z,9.7
2015-11-05T18:22:32.301Z,9.7
2015-11-05T18:23:34.334Z,9.7
2015-11-05T18:24:36.369Z,9.7
2015-11-05T18:25:38.465Z,9.7
2015-11-05T18:26:40.187Z,9.7
2015-11-05T18:27:42.487Z,9.7
2015-11-05T18:28:44.770Z,9.7
2015-11-05T18:29:47.070Z,9.6
2015-11-05T18:30:49.370Z,9.6
2015-11-05T18:31:51.654Z,9.6
2015-11-05T18:32:53.953Z,9.6
2015-11-05T18:33:56.253Z,9.6
2015-11-05T18:34:58.537Z,9.6
2015-11-05T18:36:00.883Z,9.5
2015-11-05T18:37:02.605Z,9.5
2015-11-05T18:38:04.904Z,9.5
2015-11-05T18:39:07.191Z,9.5
2015-11-05T18:40:09.491Z,9.5
2015-11-05T18:41:11.790Z,9.5
2015-11-05T18:42:14.074Z,9.4
2015-11-05T18:43:16.374Z,9.4
2015-11-05T18:44:18.658Z,9.4
2015-11-05T18:45:20.958Z,9.3
2015-11-05T18:46:23.303Z,9.3
2015-11-05T18:47:25.025Z,9.3
2015-11-05T18:48:27.325Z,9.3
2015-11-05T18:49:29.599Z,9.3
2015-11-05T18:50:31.890Z,9.3
2015-11-05T18:51:30.336Z,9.3
2015-11-05T18:54:26.245Z,9.2
2015-11-05T18:55:24.104Z,9.2
2015-11-05T18:56:22.869Z,9.2
2015-11-05T18:57:24.618Z,9.2
2015-11-05T19:00:20.701Z,9.1
2015-11-05T19:01:19.404Z,9.1
2015-11-05T19:02:18.094Z,9.1
2015-11-05T19:03:16.798Z,9.1
2015-11-05T19:04:15.519Z,9.1
2015-11-05T19:05:14.208Z,9.1
2015-11-05T19:06:12.977Z,9.1
2015-11-05T19:07:14.698Z,9.1
2015-11-05T19:08:13.403Z,9.1
2015-11-05T19:09:12.124Z,9
2015-11-05T19:10:10.830Z,9
2015-11-05T19:11:12.864Z,9
2015-11-05T19:12:08.757Z,9
2015-11-05T19:15:05.123Z,8.9
2015-11-05T19:16:03.892Z,8.9
2015-11-05T19:17:05.645Z,8.9
2015-11-05T19:18:04.585Z,8.9
2015-11-05T19:19:03.541Z,8.9
2015-11-05T19:21:04.498Z,8.9
2015-11-05T19:22:00.690Z,8.9
2015-11-05T19:22:59.895Z,8.9
2015-11-05T19:24:58.337Z,8.9
2015-11-05T19:26:59.343Z,8.9
2015-11-05T19:27:58.565Z,8.8
2015-11-05T19:28:57.786Z,8.8
2015-11-05T19:29:57.023Z,8.8
2015-11-05T19:30:56.229Z,8.8
2015-11-05T19:31:55.451Z,8.8
2015-11-05T19:32:54.673Z,8.8
2015-11-05T19:33:56.925Z,8.7
2015-11-05T19:34:53.115Z,8.7
2015-11-05T19:35:52.384Z,8.7
2015-11-05T19:36:54.105Z,8.7
2015-11-05T19:37:53.577Z,8.7
2015-11-05T19:38:53.064Z,8.7
2015-11-05T19:39:52.535Z,8.7
2015-11-05T19:40:52.019Z,8.7
2015-11-05T19:41:51.491Z,8.7